Time;durP1;ratioP1;P1;durP2;ratioP2;P2;SDS_P1;SDS_P2;PMS_P1;PMS_P2;Temp;Humidity;BMP_temperature;BMP_pressure;BME280_temperature;BME280_humidity;BME280_pressure;Samples;Min_cycle;Max_cycle;Signal;HPM_P1;HPM_P2
2024/01/25 00:00:41;;;;;;;32.85;8.02;;;6.80;99.90;;;;;;6152807;23;20010;-76
2024/01/25 00:03:07;;;;;;;35.75;8.38;;;6.80;99.90;;;;;;6177746;23;20010;-76
2024/01/25 00:05:32;;;;;;;34.15;8.30;;;6.70;99.90;;;;;;6177441;23;20063;-76
2024/01/25 00:07:58;;;;;;;37.08;8.65;;;6.60;99.90;;;;;;6128141;23;20026;-76
2024/01/25 00:10:23;;;;;;;41.85;8.85;;;6.60;99.90;;;;;;6152910;23;20018;-76
2024/01/25 00:12:49;;;;;;;39.20;9.13;;;6.50;99.90;;;;;;6153065;23;20013;-76
2024/01/25 00:15:15;;;;;;;37.13;8.57;;;6.40;99.90;;;;;;6177602;23;20045;-76
2024/01/25 00:17:41;;;;;;;40.90;8.80;;;6.30;99.90;;;;;;6177411;23;20040;-76
2024/01/25 00:20:09;;;;;;;37.88;8.55;;;6.30;99.90;;;;;;6152765;23;20088;-76
2024/01/25 00:22:35;;;;;;;38.28;9.02;;;6.20;99.90;;;;;;6152500;23;20025;-76
2024/01/25 00:25:00;;;;;;;42.35;8.68;;;6.20;99.90;;;;;;6152694;23;20005;-76
2024/01/25 00:27:26;;;;;;;40.45;8.65;;;6.10;99.90;;;;;;6152507;23;20041;-76
2024/01/25 00:29:52;;;;;;;45.67;9.18;;;6.10;99.90;;;;;;6152886;23;20018;-76
2024/01/25 00:32:17;;;;;;;38.50;8.77;;;6.00;99.90;;;;;;6152399;23;20020;-76
2024/01/25 00:34:43;;;;;;;37.60;8.70;;;6.00;99.90;;;;;;6176824;23;20020;-76
2024/01/25 00:37:10;;;;;;;39.03;9.80;;;6.00;99.90;;;;;;6152635;23;20013;-76
2024/01/25 00:39:35;;;;;;;39.10;8.98;;;5.90;99.90;;;;;;6152800;23;20048;-76
2024/01/25 00:42:06;;;;;;;37.75;8.68;;;5.90;99.90;;;;;;6152798;23;20010;-76
2024/01/25 00:44:32;;;;;;;38.85;9.13;;;5.90;99.90;;;;;;6152424;23;20025;-76
2024/01/25 00:46:58;;;;;;;35.45;9.45;;;5.80;99.90;;;;;;6151901;23;20013;-76
2024/01/25 00:49:24;;;;;;;37.13;9.23;;;5.80;99.90;;;;;;6152557;23;20064;-76
2024/01/25 00:51:55;;;;;;;38.22;8.82;;;5.80;99.90;;;;;;6152649;23;20005;-76
2024/01/25 00:54:21;;;;;;;38.17;9.23;;;5.70;99.90;;;;;;6152329;23;20020;-76
2024/01/25 00:56:50;;;;;;;38.28;9.63;;;5.70;99.90;;;;;;6152426;23;20006;-76
2024/01/25 00:59:16;;;;;;;41.92;8.93;;;5.70;99.90;;;;;;6152631;23;20041;-76
2024/01/25 01:01:46;;;;;;;41.67;9.15;;;5.60;99.90;;;;;;6176734;23;20017;-76
2024/01/25 01:04:12;;;;;;;41.92;8.93;;;5.60;99.90;;;;;;6152300;23;20064;-76
2024/01/25 01:06:37;;;;;;;39.15;8.57;;;5.60;99.90;;;;;;6177362;23;20370;-76
2024/01/25 01:09:03;;;;;;;42.15;9.63;;;5.50;99.90;;;;;;6152425;23;20345;-76
2024/01/25 01:11:29;;;;;;;40.92;9.13;;;5.50;99.90;;;;;;6152088;23;20474;-76
2024/01/25 01:13:55;;;;;;;39.10;8.65;;;5.40;99.90;;;;;;6151744;23;20021;-76
2024/01/25 01:16:21;;;;;;;39.08;8.68;;;5.40;99.90;;;;;;6152368;23;20024;-76
2024/01/25 01:18:46;;;;;;;46.60;9.40;;;5.30;99.90;;;;;;6152454;23;20020;-76
2024/01/25 01:21:12;;;;;;;40.47;8.80;;;5.40;99.90;;;;;;6152377;23;20009;-76
2024/01/25 01:23:37;;;;;;;41.92;8.85;;;5.40;99.90;;;;;;6176169;23;20026;-76
2024/01/25 01:26:04;;;;;;;40.63;9.68;;;5.50;99.90;;;;;;6127460;23;20013;-76
2024/01/25 01:28:29;;;;;;;40.35;9.32;;;5.50;99.90;;;;;;6152162;23;20056;-76
2024/01/25 01:30:55;;;;;;;42.75;9.80;;;5.60;99.90;;;;;;6152542;23;20394;-76
2024/01/25 01:33:20;;;;;;;44.50;9.75;;;5.60;99.90;;;;;;6152278;23;20434;-76
2024/01/25 01:35:46;;;;;;;39.58;8.77;;;5.60;99.90;;;;;;6152333;23;20021;-76
2024/01/25 01:38:11;;;;;;;46.20;9.82;;;5.60;99.90;;;;;;6152000;23;20096;-76
2024/01/25 01:40:37;;;;;;;45.75;10.25;;;5.60;99.90;;;;;;6176859;23;20620;-76
2024/01/25 01:43:03;;;;;;;42.60;9.18;;;5.50;99.90;;;;;;6152124;23;20017;-76
2024/01/25 01:45:29;;;;;;;45.40;9.30;;;5.50;99.90;;;;;;6152007;23;20025;-76
2024/01/25 01:47:56;;;;;;;43.03;9.98;;;5.40;99.90;;;;;;6151803;23;20006;-76
2024/01/25 01:50:22;;;;;;;38.47;9.18;;;5.40;99.90;;;;;;6152449;23;20549;-76
2024/01/25 01:52:49;;;;;;;43.85;10.38;;;5.40;99.90;;;;;;6152339;23;20339;-76
2024/01/25 01:55:19;;;;;;;46.50;10.00;;;5.40;99.90;;;;;;6127484;23;20041;-76
2024/01/25 01:57:46;;;;;;;42.40;9.30;;;5.30;99.90;;;;;;6152254;23;20018;-76
2024/01/25 02:00:15;;;;;;;48.10;10.40;;;5.30;99.90;;;;;;6127689;23;20036;-76
2024/01/25 02:02:40;;;;;;;44.90;10.50;;;5.20;99.90;;;;;;6152153;23;20018;-76
2024/01/25 02:05:06;;;;;;;43.92;9.80;;;5.20;99.90;;;;;;6151670;23;20262;-76
2024/01/25 02:07:32;;;;;;;51.60;11.02;;;5.20;99.90;;;;;;6177789;23;20088;-76
2024/01/25 02:09:57;;;;;;;42.38;10.18;;;5.20;99.90;;;;;;6153577;23;20415;-76
2024/01/25 02:12:23;;;;;;;39.13;9.55;;;5.20;99.90;;;;;;6153213;23;20021;-76
2024/01/25 02:14:48;;;;;;;46.42;10.20;;;5.20;99.90;;;;;;6178522;23;20092;-76
2024/01/25 02:17:14;;;;;;;43.10;9.68;;;5.20;99.90;;;;;;6153993;23;20013;-76
2024/01/25 02:19:39;;;;;;;45.70;9.63;;;5.20;99.90;;;;;;6178307;23;20013;-76
2024/01/25 02:22:06;;;;;;;46.83;10.25;;;5.20;99.90;;;;;;6153348;23;20099;-76
2024/01/25 02:24:31;;;;;;;44.67;10.60;;;5.20;99.90;;;;;;6128962;23;20446;-76
2024/01/25 02:26:57;;;;;;;45.22;10.50;;;5.20;99.90;;;;;;6153689;23;20021;-76
2024/01/25 02:29:23;;;;;;;49.67;9.98;;;5.20;99.90;;;;;;6129544;23;20010;-76
2024/01/25 02:31:48;;;;;;;45.30;10.95;;;5.10;99.90;;;;;;6153900;23;20096;-76
2024/01/25 02:34:14;;;;;;;46.13;9.85;;;5.10;99.90;;;;;;6153321;23;20014;-76
2024/01/25 02:36:39;;;;;;;47.78;9.52;;;5.10;99.90;;;;;;6153706;23;20064;-76
2024/01/25 02:39:05;;;;;;;51.67;10.77;;;5.00;99.90;;;;;;6178740;23;20013;-76
2024/01/25 02:41:33;;;;;;;44.03;10.48;;;5.00;99.90;;;;;;6153876;23;20017;-76
2024/01/25 02:44:00;;;;;;;50.45;9.85;;;5.00;99.90;;;;;;6128903;23;20021;-76
2024/01/25 02:46:25;;;;;;;43.67;9.52;;;5.00;99.90;;;;;;6153688;23;20013;-76
2024/01/25 02:48:51;;;;;;;50.53;10.40;;;4.90;99.90;;;;;;6153356;23;20016;-76
2024/01/25 02:51:16;;;;;;;45.83;10.32;;;4.90;99.90;;;;;;6153789;23;20014;-76
2024/01/25 02:53:42;;;;;;;48.88;11.02;;;4.90;99.90;;;;;;6153427;23;20017;-76
2024/01/25 02:56:07;;;;;;;51.28;10.38;;;4.90;99.90;;;;;;6153650;23;20017;-76
2024/01/25 02:58:33;;;;;;;42.60;10.32;;;4.90;99.90;;;;;;6152924;23;20016;-76
2024/01/25 03:00:59;;;;;;;47.70;9.30;;;4.90;99.90;;;;;;6152974;23;20159;-76
2024/01/25 03:03:24;;;;;;;52.58;10.52;;;4.80;99.90;;;;;;6153291;23;20018;-76
2024/01/25 03:05:51;;;;;;;47.28;10.48;;;4.80;99.90;;;;;;6153420;23;20453;-76
2024/01/25 03:08:17;;;;;;;45.13;9.65;;;4.80;99.90;;;;;;6153206;23;20009;-76
2024/01/25 03:10:43;;;;;;;47.08;10.10;;;4.80;99.90;;;;;;6153254;23;20010;-76
2024/01/25 03:13:08;;;;;;;46.72;9.93;;;4.70;99.90;;;;;;6153484;23;20152;-76
2024/01/25 03:15:34;;;;;;;43.47;9.20;;;4.70;99.90;;;;;;6153474;23;20538;-76
2024/01/25 03:18:00;;;;;;;49.88;11.15;;;4.70;99.90;;;;;;6153290;23;20015;-76
2024/01/25 03:20:25;;;;;;;49.35;9.63;;;4.70;99.90;;;;;;6153464;23;20014;-75
2024/01/25 03:22:51;;;;;;;48.42;10.93;;;4.70;99.90;;;;;;6152714;23;20032;-76
2024/01/25 03:25:16;;;;;;;49.53;10.07;;;4.70;99.90;;;;;;6152729;23;20005;-76
2024/01/25 03:27:42;;;;;;;48.00;10.38;;;4.70;99.90;;;;;;6152134;23;20073;-74
2024/01/25 03:30:08;;;;;;;51.60;10.55;;;4.60;99.90;;;;;;6128970;23;20014;-74
2024/01/25 03:32:34;;;;;;;47.55;10.63;;;4.70;99.90;;;;;;6128351;23;20013;-74
2024/01/25 03:35:00;;;;;;;44.85;10.98;;;4.70;99.90;;;;;;6128724;23;20010;-74
2024/01/25 03:37:25;;;;;;;53.30;11.40;;;4.60;99.90;;;;;;6110061;23;20009;-74
2024/01/25 03:39:51;;;;;;;46.25;9.77;;;4.60;99.90;;;;;;6099121;23;20041;-74
2024/01/25 03:42:17;;;;;;;50.75;10.88;;;4.60;99.90;;;;;;6123682;23;20010;-74
2024/01/25 03:44:44;;;;;;;44.22;10.10;;;4.50;99.90;;;;;;6099279;23;20037;-74
2024/01/25 03:47:10;;;;;;;49.42;10.55;;;4.60;99.90;;;;;;6123588;23;20474;-74
2024/01/25 03:49:36;;;;;;;48.00;9.70;;;4.50;99.90;;;;;;6099044;23;20010;-75
2024/01/25 03:52:02;;;;;;;50.17;10.48;;;4.50;99.90;;;;;;6123148;23;20073;-74
2024/01/25 03:54:28;;;;;;;44.25;10.50;;;4.40;99.90;;;;;;6098857;23;20017;-75
2024/01/25 03:56:53;;;;;;;48.70;10.82;;;4.40;99.90;;;;;;6098927;23;20014;-73
2024/01/25 03:59:19;;;;;;;56.33;11.15;;;4.30;99.90;;;;;;6098921;23;20022;-74
2024/01/25 04:01:45;;;;;;;53.83;10.05;;;4.30;99.90;;;;;;6098723;23;20454;-74
2024/01/25 04:04:11;;;;;;;47.55;10.88;;;4.20;99.90;;;;;;6097942;23;20052;-73
2024/01/25 04:06:43;;;;;;;54.33;11.32;;;4.10;99.90;;;;;;6098676;23;20100;-74
2024/01/25 04:09:09;;;;;;;52.20;10.52;;;4.10;99.90;;;;;;6098930;23;20407;-74
2024/01/25 04:11:36;;;;;;;46.95;10.05;;;4.00;99.90;;;;;;6099317;23;20014;-74
2024/01/25 04:14:02;;;;;;;53.65;10.95;;;4.00;99.90;;;;;;6098449;23;20017;-73
2024/01/25 04:16:27;;;;;;;60.40;11.40;;;3.90;99.90;;;;;;6123188;23;20016;-74
2024/01/25 04:18:53;;;;;;;57.00;11.38;;;3.90;99.90;;;;;;6098667;23;20013;-74
2024/01/25 04:21:19;;;;;;;55.42;10.75;;;3.90;99.90;;;;;;6123600;23;20018;-74
2024/01/25 04:23:44;;;;;;;55.95;11.52;;;3.90;99.90;;;;;;6098530;23;20010;-74
2024/01/25 04:26:10;;;;;;;56.58;11.18;;;3.80;99.90;;;;;;6123031;23;20375;-73
2024/01/25 04:28:36;;;;;;;50.33;10.38;;;3.80;99.90;;;;;;6123697;23;20093;-73
2024/01/25 04:31:03;;;;;;;57.22;10.35;;;3.80;99.90;;;;;;6098445;23;20022;-74
2024/01/25 04:33:29;;;;;;;60.13;12.13;;;3.70;99.90;;;;;;6098219;23;20089;-74
2024/01/25 04:35:55;;;;;;;55.00;11.30;;;3.70;99.90;;;;;;6123269;23;20018;-73
2024/01/25 04:38:20;;;;;;;59.25;12.07;;;3.60;99.90;;;;;;6123075;23;20014;-73
2024/01/25 04:40:46;;;;;;;62.92;11.80;;;3.60;99.90;;;;;;6099106;23;20018;-74
2024/01/25 04:43:12;;;;;;;64.90;11.35;;;3.60;99.90;;;;;;6098437;23;20010;-74
2024/01/25 04:45:38;;;;;;;55.22;11.35;;;3.60;99.90;;;;;;6098520;23;20446;-74
2024/01/25 04:48:04;;;;;;;62.70;12.52;;;3.60;99.90;;;;;;6123031;23;20014;-74
2024/01/25 04:50:29;;;;;;;63.30;11.77;;;3.60;99.90;;;;;;6098582;23;20018;-73
2024/01/25 04:52:55;;;;;;;58.88;11.88;;;3.50;99.90;;;;;;6098410;23;20373;-76
2024/01/25 04:55:21;;;;;;;65.32;10.98;;;3.50;99.90;;;;;;6098067;23;20084;-74
2024/01/25 04:57:47;;;;;;;65.97;11.90;;;3.50;99.90;;;;;;6098394;23;20052;-74
2024/01/25 05:00:14;;;;;;;59.25;11.80;;;3.50;99.90;;;;;;6098523;23;20014;-74
2024/01/25 05:02:39;;;;;;;61.17;11.75;;;3.50;99.90;;;;;;6098566;23;20478;-74
2024/01/25 05:05:05;;;;;;;63.38;11.52;;;3.50;99.90;;;;;;6098294;23;20052;-74
2024/01/25 05:07:31;;;;;;;59.08;11.82;;;3.50;99.90;;;;;;6098413;23;20089;-74
2024/01/25 05:09:57;;;;;;;62.30;13.15;;;3.50;99.90;;;;;;6097975;23;20013;-74
2024/01/25 05:12:22;;;;;;;59.53;12.07;;;3.50;99.90;;;;;;6097743;23;20432;-74
2024/01/25 05:14:48;;;;;;;60.88;11.82;;;3.50;99.90;;;;;;6122503;23;20342;-74
2024/01/25 05:17:13;;;;;;;61.33;11.25;;;3.50;99.90;;;;;;6098309;23;20081;-74
2024/01/25 05:19:39;;;;;;;67.95;11.65;;;3.40;99.90;;;;;;6098733;23;20442;-73
2024/01/25 05:22:07;;;;;;;65.72;12.18;;;3.40;99.90;;;;;;6122828;23;20092;-74
2024/01/25 05:24:33;;;;;;;63.50;12.95;;;3.40;99.90;;;;;;6097835;23;20085;-74
2024/01/25 05:26:59;;;;;;;62.15;11.52;;;3.40;99.90;;;;;;6098250;23;20458;-74
2024/01/25 05:29:24;;;;;;;29.67;3.78;;;3.30;99.90;;;;;;6098880;23;20073;-74
2024/01/25 05:31:50;;;;;;;50.50;10.77;;;3.20;99.90;;;;;;6123226;23;20014;-73
2024/01/25 05:34:16;;;;;;;57.25;10.77;;;3.10;99.90;;;;;;6097267;23;20018;-74
2024/01/25 05:36:41;;;;;;;60.83;11.23;;;3.00;99.90;;;;;;6097948;23;20037;-74
2024/01/25 05:39:07;;;;;;;53.95;10.50;;;3.00;99.90;;;;;;6097604;23;20014;-75
2024/01/25 05:41:33;;;;;;;53.65;11.02;;;2.90;99.90;;;;;;6098584;23;20324;-75
2024/01/25 05:44:00;;;;;;;57.47;11.20;;;2.80;99.90;;;;;;6100620;23;20169;-75
2024/01/25 05:46:26;;;;;;;61.53;11.48;;;2.80;99.90;;;;;;6100469;23;20009;-74
2024/01/25 05:48:51;;;;;;;19.33;4.55;;;2.70;99.90;;;;;;6124544;23;20041;-74
2024/01/25 05:51:17;;;;;;;52.90;10.93;;;2.60;99.90;;;;;;6125160;23;20014;-73
2024/01/25 05:53:43;;;;;;;64.60;12.00;;;2.60;99.90;;;;;;6100609;23;20017;-74
2024/01/25 05:56:09;;;;;;;55.13;11.85;;;2.60;99.90;;;;;;6100346;23;20026;-74
2024/01/25 05:58:34;;;;;;;63.83;11.90;;;2.50;99.90;;;;;;6100556;23;20075;-73
2024/01/25 06:01:00;;;;;;;52.90;11.25;;;2.40;99.90;;;;;;6100277;23;20018;-74
2024/01/25 06:03:26;;;;;;;58.42;12.18;;;2.40;99.90;;;;;;6099517;23;20117;-74
2024/01/25 06:05:51;;;;;;;65.72;11.90;;;2.30;99.90;;;;;;6100349;23;20045;-73
2024/01/25 06:08:17;;;;;;;62.13;13.43;;;2.30;99.90;;;;;;6100468;23;20014;-74
2024/01/25 06:10:43;;;;;;;68.57;13.68;;;2.30;99.90;;;;;;6100681;23;20014;-74
2024/01/25 06:13:09;;;;;;;69.25;13.88;;;2.20;99.90;;;;;;6099597;23;20014;-74
2024/01/25 06:15:34;;;;;;;37.08;4.72;;;2.20;99.90;;;;;;6100414;23;20025;-74
2024/01/25 06:18:00;;;;;;;79.68;14.88;;;2.20;99.90;;;;;;6124258;23;20017;-74
2024/01/25 06:20:26;;;;;;;70.55;13.95;;;2.30;99.90;;;;;;6100093;23;20014;-74
2024/01/25 06:22:51;;;;;;;28.80;4.53;;;2.30;99.90;;;;;;6124213;23;20057;-74
2024/01/25 06:25:17;;;;;;;84.40;14.98;;;2.30;99.90;;;;;;6124264;23;20061;-73
2024/01/25 06:27:43;;;;;;;68.20;13.82;;;2.20;99.90;;;;;;6099460;23;20014;-74
2024/01/25 06:30:09;;;;;;;71.53;14.98;;;2.30;99.90;;;;;;6100048;23;20046;-74
2024/01/25 06:32:35;;;;;;;70.70;14.52;;;2.30;99.90;;;;;;6124018;23;20013;-75
2024/01/25 06:35:00;;;;;;;33.47;4.55;;;2.30;99.90;;;;;;6099815;23;20006;-73
2024/01/25 06:37:26;;;;;;;81.82;15.98;;;2.30;99.90;;;;;;6124182;23;20010;-74
2024/01/25 06:39:51;;;;;;;77.60;14.85;;;2.20;99.90;;;;;;6100035;23;20401;-74
2024/01/25 06:42:17;;;;;;;39.20;4.95;;;2.20;99.90;;;;;;6099851;23;20018;-74
2024/01/25 06:44:43;;;;;;;77.82;13.88;;;2.20;99.90;;;;;;6124023;23;20017;-74
2024/01/25 06:47:08;;;;;;;61.67;13.25;;;2.10;99.90;;;;;;6099450;23;20010;-73
2024/01/25 06:49:34;;;;;;;64.25;14.27;;;2.10;99.90;;;;;;6099883;23;20065;-73
2024/01/25 06:51:59;;;;;;;27.75;4.47;;;2.10;99.90;;;;;;6100296;23;20018;-73
2024/01/25 06:54:25;;;;;;;35.45;5.90;;;2.10;99.90;;;;;;6123999;23;20068;-73
2024/01/25 06:56:51;;;;;;;85.03;16.98;;;2.10;99.90;;;;;;6124813;23;20018;-74
2024/01/25 06:59:17;;;;;;;81.13;15.98;;;2.20;99.90;;;;;;6125562;23;20014;-73
2024/01/25 07:01:42;;;;;;;77.03;17.08;;;2.20;99.90;;;;;;6099407;23;20056;-73
2024/01/25 07:04:08;;;;;;;30.88;5.47;;;2.20;99.90;;;;;;6124027;23;20461;-73
2024/01/25 07:06:33;;;;;;;82.50;16.77;;;2.10;99.90;;;;;;6124222;23;20093;-73
2024/01/25 07:08:59;;;;;;;91.18;17.85;;;2.10;99.90;;;;;;6099602;23;20335;-73
2024/01/25 07:11:25;;;;;;;84.97;19.33;;;2.10;99.90;;;;;;6099898;23;20021;-73
2024/01/25 07:13:51;;;;;;;75.18;16.55;;;2.10;99.90;;;;;;6123994;23;20080;-73
2024/01/25 07:16:16;;;;;;;32.30;5.85;;;2.10;99.90;;;;;;6123899;23;20324;-73
2024/01/25 07:18:42;;;;;;;85.00;18.10;;;2.10;99.90;;;;;;6100015;23;20029;-73
2024/01/25 07:21:08;;;;;;;84.53;18.05;;;2.20;99.90;;;;;;6124241;23;20093;-73
2024/01/25 07:23:34;;;;;;;79.32;17.23;;;2.20;99.90;;;;;;6099350;23;20064;-73
2024/01/25 07:25:59;;;;;;;28.67;4.30;;;2.20;99.90;;;;;;6098938;23;20048;-73
2024/01/25 07:28:25;;;;;;;82.30;17.48;;;2.20;99.90;;;;;;6124218;23;20423;-73
2024/01/25 07:30:51;;;;;;;89.47;19.48;;;2.20;99.90;;;;;;6099336;23;20033;-73
2024/01/25 07:33:16;;;;;;;88.05;19.83;;;2.30;99.90;;;;;;6099003;23;20042;-73
2024/01/25 07:35:46;;;;;;;82.93;19.40;;;2.30;99.90;;;;;;6123854;23;20505;-73
2024/01/25 07:38:12;;;;;;;87.43;20.20;;;2.40;99.90;;;;;;6122715;23;20025;-73
2024/01/25 07:40:37;;;;;;;40.13;6.25;;;2.40;99.90;;;;;;6099069;23;20069;-75
2024/01/25 07:43:03;;;;;;;48.08;8.48;;;2.40;99.90;;;;;;6099074;23;20387;-72
2024/01/25 07:45:29;;;;;;;81.38;18.75;;;2.40;99.90;;;;;;6099444;23;20014;-75
2024/01/25 07:47:54;;;;;;;86.53;20.30;;;2.40;99.90;;;;;;6098272;23;20032;-73
2024/01/25 07:50:20;;;;;;;83.97;22.35;;;2.50;99.90;;;;;;6123694;23;20339;-73
2024/01/25 07:52:46;;;;;;;83.57;19.55;;;2.60;99.90;;;;;;6099308;23;20017;-73
2024/01/25 07:55:12;;;;;;;85.28;20.67;;;2.60;99.90;;;;;;6099157;23;20081;-73
2024/01/25 07:57:37;;;;;;;77.13;18.98;;;2.70;99.90;;;;;;6123513;23;20470;-73
2024/01/25 08:00:04;;;;;;;77.22;20.23;;;2.70;99.90;;;;;;6123541;23;20025;-73
2024/01/25 08:02:30;;;;;;;82.10;18.83;;;2.80;99.90;;;;;;6098536;23;20370;-73
2024/01/25 08:04:57;;;;;;;86.78;19.75;;;2.80;99.90;;;;;;6123224;23;20024;-73
2024/01/25 08:07:23;;;;;;;89.35;20.25;;;2.90;99.90;;;;;;6098295;23;20017;-74
2024/01/25 08:09:51;;;;;;;72.80;18.90;;;3.00;99.90;;;;;;6098776;23;20085;-73
2024/01/25 08:12:17;;;;;;;82.10;19.60;;;3.10;99.90;;;;;;6099159;23;20467;-73
2024/01/25 08:14:43;;;;;;;89.18;19.83;;;3.10;99.90;;;;;;6123235;23;20021;-73
2024/01/25 08:17:09;;;;;;;83.43;19.33;;;3.10;99.90;;;;;;6123052;23;20020;-73
2024/01/25 08:19:35;;;;;;;91.93;19.15;;;3.20;99.90;;;;;;6123015;23;20437;-74
2024/01/25 08:22:01;;;;;;;74.72;18.38;;;3.20;99.90;;;;;;6099935;23;20025;-74
2024/01/25 08:24:27;;;;;;;77.68;18.95;;;3.20;99.90;;;;;;6123794;23;20013;-74
2024/01/25 08:26:53;;;;;;;74.55;19.25;;;3.30;99.90;;;;;;6098998;23;20021;-73
2024/01/25 08:29:18;;;;;;;85.97;19.30;;;3.30;99.90;;;;;;6099740;23;20010;-74
2024/01/25 08:31:44;;;;;;;77.95;18.20;;;3.30;99.90;;;;;;6124491;23;20013;-74
2024/01/25 08:34:09;;;;;;;77.90;17.40;;;3.30;99.90;;;;;;6124168;23;20017;-73
2024/01/25 08:36:35;;;;;;;78.25;17.88;;;3.40;99.90;;;;;;6098906;23;20020;-74
2024/01/25 08:39:01;;;;;;;66.43;16.85;;;3.40;99.90;;;;;;6123299;23;20351;-74
2024/01/25 08:41:27;;;;;;;76.55;17.90;;;3.50;99.90;;;;;;6098347;23;20018;-74
2024/01/25 08:43:53;;;;;;;68.65;16.70;;;3.50;99.90;;;;;;6098438;23;20010;-74
2024/01/25 08:46:18;;;;;;;71.35;18.17;;;3.50;99.90;;;;;;6098757;23;20010;-74
2024/01/25 08:48:44;;;;;;;69.45;15.90;;;3.60;99.90;;;;;;6122668;23;20014;-74
2024/01/25 08:51:10;;;;;;;66.00;16.15;;;3.70;99.90;;;;;;6098459;23;20014;-74
2024/01/25 08:53:35;;;;;;;70.60;16.98;;;3.70;99.90;;;;;;6098237;23;20014;-76
2024/01/25 08:56:01;;;;;;;65.07;16.38;;;3.80;99.90;;;;;;6098662;23;20393;-74
2024/01/25 08:58:26;;;;;;;64.88;16.80;;;3.80;99.90;;;;;;6121991;23;20017;-75
2024/01/25 09:00:52;;;;;;;67.00;16.00;;;3.90;99.90;;;;;;6121958;23;20111;-75
2024/01/25 09:03:18;;;;;;;68.07;16.65;;;3.90;99.90;;;;;;6098072;23;20014;-75
2024/01/25 09:05:46;;;;;;;66.13;16.35;;;4.00;99.90;;;;;;6098570;23;20414;-75
2024/01/25 09:08:13;;;;;;;68.13;15.25;;;4.00;99.90;;;;;;6098971;23;20014;-74
2024/01/25 09:10:40;;;;;;;62.88;15.45;;;4.10;99.90;;;;;;6098973;23;20018;-74
2024/01/25 09:13:05;;;;;;;69.95;16.00;;;4.10;99.90;;;;;;6097817;23;20025;-74
2024/01/25 09:15:31;;;;;;;59.28;15.95;;;4.20;99.90;;;;;;6098405;23;20010;-74
2024/01/25 09:17:56;;;;;;;66.60;15.80;;;4.30;99.90;;;;;;6123103;23;20153;-74
2024/01/25 09:20:22;;;;;;;65.57;15.88;;;4.30;99.90;;;;;;6098700;23;20021;-74
2024/01/25 09:22:47;;;;;;;66.80;15.57;;;4.40;99.90;;;;;;6122492;23;20014;-74
2024/01/25 09:25:13;;;;;;;55.25;15.30;;;4.50;99.90;;;;;;6098629;23;20013;-74
2024/01/25 09:27:39;;;;;;;56.20;16.85;;;4.60;99.90;;;;;;6128284;23;20044;-77
2024/01/25 09:30:08;;;;;;;55.42;15.00;;;4.60;99.90;;;;;;6128077;23;20018;-77
2024/01/25 09:32:34;;;;;;;58.90;16.73;;;4.80;99.90;;;;;;6127465;23;20438;-77
2024/01/25 09:34:59;;;;;;;56.00;15.65;;;4.80;99.90;;;;;;6127661;23;20016;-77
2024/01/25 09:37:25;;;;;;;59.67;16.17;;;4.90;99.90;;;;;;6114190;23;20010;-77
2024/01/25 09:39:51;;;;;;;53.50;14.57;;;5.00;99.90;;;;;;6098711;23;20018;-77
2024/01/25 09:42:18;;;;;;;51.72;14.65;;;5.10;99.90;;;;;;6098433;23;20018;-77
2024/01/25 09:44:44;;;;;;;52.30;15.65;;;5.20;99.90;;;;;;6074282;23;20451;-77
2024/01/25 09:47:10;;;;;;;56.58;14.68;;;5.30;99.90;;;;;;6098026;23;20010;-78
2024/01/25 09:49:35;;;;;;;54.33;15.70;;;5.40;99.90;;;;;;6098687;23;20076;-78
2024/01/25 09:52:05;;;;;;;52.67;14.80;;;5.40;99.90;;;;;;6074579;23;20438;-77
2024/01/25 09:54:35;;;;;;;50.50;13.38;;;5.50;99.90;;;;;;6098253;23;20014;-77
2024/01/25 09:57:17;;;;;;;46.97;13.85;;;5.50;99.90;;;;;;6098427;23;20020;-77
2024/01/25 09:59:43;;;;;;;52.23;14.87;;;5.60;99.90;;;;;;6073327;23;20014;-78
2024/01/25 10:02:10;;;;;;;47.67;14.02;;;5.60;99.90;;;;;;6098446;23;20017;-77
2024/01/25 10:04:35;;;;;;;52.00;14.45;;;5.70;99.90;;;;;;6098134;23;20006;-77
2024/01/25 10:07:01;;;;;;;51.33;14.32;;;5.80;99.90;;;;;;6073591;23;20497;-78
2024/01/25 10:09:27;;;;;;;52.65;13.43;;;5.80;99.90;;;;;;6073550;23;20060;-77
2024/01/25 10:11:52;;;;;;;43.63;12.55;;;5.90;99.90;;;;;;6097850;23;20046;-77
2024/01/25 10:14:18;;;;;;;47.45;12.65;;;6.00;99.90;;;;;;6097135;23;20481;-78
2024/01/25 10:16:45;;;;;;;56.72;14.10;;;6.00;99.90;;;;;;6098182;23;20454;-78
2024/01/25 10:19:12;;;;;;;51.00;13.85;;;6.10;99.90;;;;;;6097997;23;20025;-77
2024/01/25 10:21:37;;;;;;;47.88;13.30;;;6.10;99.90;;;;;;6074639;23;20014;-78
2024/01/25 10:24:05;;;;;;;49.80;13.05;;;6.20;99.90;;;;;;6074003;23;20398;-76
2024/01/25 10:26:31;;;;;;;49.67;13.73;;;6.30;99.90;;;;;;6096397;23;20010;-77
2024/01/25 10:28:56;;;;;;;48.90;14.05;;;6.30;99.90;;;;;;6046839;23;20440;-77
2024/01/25 10:31:25;;;;;;;51.17;14.20;;;6.40;99.90;;;;;;6070433;23;20026;-77
2024/01/25 10:33:55;;;;;;;46.55;13.57;;;6.40;99.90;;;;;;6070583;23;20025;-77
2024/01/25 10:36:26;;;;;;;45.17;13.52;;;6.50;99.90;;;;;;6070609;23;20014;-77
2024/01/25 10:38:53;;;;;;;44.10;13.98;;;6.50;99.90;;;;;;6071091;23;20050;-77
2024/01/25 10:41:19;;;;;;;44.45;13.05;;;6.50;99.90;;;;;;6070955;23;20097;-77
2024/01/25 10:43:45;;;;;;;51.30;13.50;;;6.60;99.90;;;;;;6070884;23;20053;-77
2024/01/25 10:46:11;;;;;;;51.42;14.40;;;6.60;99.90;;;;;;6070711;23;20089;-76
2024/01/25 10:48:37;;;;;;;49.08;13.48;;;6.70;99.90;;;;;;6070912;23;20010;-77
2024/01/25 10:51:05;;;;;;;48.00;13.45;;;6.70;99.90;;;;;;6070923;23;20018;-77
2024/01/25 10:53:33;;;;;;;45.03;13.07;;;6.80;99.90;;;;;;6070222;23;20018;-77
2024/01/25 10:55:59;;;;;;;42.72;13.13;;;6.80;99.90;;;;;;6070890;23;20085;-77
2024/01/25 10:58:35;;;;;;;51.00;13.07;;;6.90;99.90;;;;;;6070809;23;20351;-77
2024/01/25 11:01:03;;;;;;;47.05;13.57;;;6.90;99.90;;;;;;6070852;23;20037;-77
2024/01/25 11:03:30;;;;;;;46.33;12.70;;;6.90;99.90;;;;;;6070216;23;20006;-77
2024/01/25 11:06:08;;;;;;;45.17;12.65;;;6.90;99.90;;;;;;6070613;23;20113;-77
2024/01/25 11:08:33;;;;;;;40.13;12.38;;;6.90;99.90;;;;;;6071085;23;20046;-78
2024/01/25 11:10:59;;;;;;;50.40;12.60;;;6.90;99.90;;;;;;6046896;23;20014;-77
2024/01/25 11:13:27;;;;;;;48.45;13.63;;;6.90;99.90;;;;;;6070188;23;20025;-77
2024/01/25 11:15:53;;;;;;;45.55;13.20;;;6.90;99.90;;;;;;6071014;23;20459;-78
2024/01/25 11:18:18;;;;;;;49.47;13.52;;;7.00;99.90;;;;;;6070816;23;20066;-77
2024/01/25 11:20:47;;;;;;;46.95;12.73;;;7.10;99.90;;;;;;6070145;23;20019;-77
2024/01/25 11:23:16;;;;;;;45.67;12.70;;;7.30;99.90;;;;;;6070527;23;20014;-77
2024/01/25 11:25:48;;;;;;;43.58;13.77;;;7.30;99.90;;;;;;6069215;23;20014;-77
2024/01/25 11:28:17;;;;;;;42.33;12.05;;;7.40;99.90;;;;;;6109629;23;20021;-78
2024/01/25 11:30:44;;;;;;;46.75;13.55;;;7.60;99.90;;;;;;6123784;23;20323;-77
2024/01/25 11:33:10;;;;;;;42.83;13.18;;;7.70;99.90;;;;;;6123739;23;20106;-77
2024/01/25 11:35:36;;;;;;;41.88;12.15;;;7.80;99.90;;;;;;6123465;23;20462;-77
2024/01/25 11:38:01;;;;;;;43.40;12.30;;;8.00;99.90;;;;;;6123923;23;20018;-76
2024/01/25 11:40:31;;;;;;;45.80;12.15;;;8.10;99.90;;;;;;6099289;23;20053;-77
2024/01/25 11:42:57;;;;;;;39.88;12.82;;;8.30;99.90;;;;;;6123398;23;20382;-77
2024/01/25 11:45:22;;;;;;;39.38;12.98;;;8.70;99.90;;;;;;6123340;23;20014;-77
2024/01/25 11:47:49;;;;;;;39.67;12.15;;;8.90;99.90;;;;;;6123812;23;20551;-80
2024/01/25 11:50:14;;;;;;;39.10;12.20;;;9.00;99.90;;;;;;6098485;23;20025;-77
2024/01/25 11:52:40;;;;;;;37.63;11.05;;;9.10;99.90;;;;;;6123389;23;20006;-78
2024/01/25 11:55:08;;;;;;;37.90;12.10;;;9.20;99.90;;;;;;6099148;23;20010;-78
2024/01/25 11:57:40;;;;;;;38.03;11.50;;;9.10;99.90;;;;;;6123189;23;20006;-78
2024/01/25 12:00:09;;;;;;;40.08;10.80;;;9.10;99.90;;;;;;6123549;23;20068;-78
2024/01/25 12:02:38;;;;;;;35.53;12.82;;;9.20;99.90;;;;;;6123751;23;20022;-78
2024/01/25 12:05:05;;;;;;;36.90;11.43;;;9.50;99.90;;;;;;6122300;23;20014;-78
2024/01/25 12:07:31;;;;;;;38.17;11.52;;;9.70;99.90;;;;;;6124060;23;20014;-79
2024/01/25 12:10:05;;;;;;;39.33;11.38;;;9.90;99.90;;;;;;6123005;23;20012;-79
2024/01/25 12:12:30;;;;;;;43.33;11.13;;;9.70;99.90;;;;;;6122632;23;20010;-79
2024/01/25 12:15:00;;;;;;;41.05;11.43;;;9.40;99.90;;;;;;6098874;23;20021;-79
2024/01/25 12:17:33;;;;;;;40.50;11.68;;;9.20;99.90;;;;;;6123531;23;20056;-79
2024/01/25 12:19:59;;;;;;;38.78;10.95;;;8.90;99.90;;;;;;6123535;23;20018;-79
2024/01/25 12:22:30;;;;;;;40.50;11.70;;;8.80;99.90;;;;;;6099044;23;20077;-79
2024/01/25 12:24:56;;;;;;;41.00;11.20;;;8.80;99.90;;;;;;6098311;23;20085;-79
2024/01/25 12:27:23;;;;;;;40.65;11.45;;;8.80;99.90;;;;;;6099125;23;20513;-79
2024/01/25 12:29:50;;;;;;;43.92;11.70;;;8.80;99.90;;;;;;6123795;23;20017;-79
2024/01/25 12:32:16;;;;;;;34.25;10.90;;;9.10;99.90;;;;;;6123797;23;20014;-79